sensor_id;sensor_type;location;lat;lon;timestamp;pressure;altitude;pressure_sealevel;temperature;humidity
58979;BME280;44763;50.464;30.612;2022-07-01T00:02:01;100457.45;;;21.03;83.65
58979;BME280;44763;50.464;30.612;2022-07-01T00:04:28;100458.25;;;21.01;83.89
58979;BME280;44763;50.464;30.612;2022-07-01T00:06:57;100458.55;;;21.02;84.34
58979;BME280;44763;50.464;30.612;2022-07-01T00:09:23;100463.96;;;21.02;83.79
58979;BME280;44763;50.464;30.612;2022-07-01T00:11:49;100460.08;;;20.95;83.45
58979;BME280;44763;50.464;30.612;2022-07-01T00:14:16;100457.06;;;20.92;85.15
58979;BME280;44763;50.464;30.612;2022-07-01T00:16:42;100462.21;;;20.91;85.95
58979;BME280;44763;50.464;30.612;2022-07-01T00:19:09;100461.13;;;20.92;84.52
58979;BME280;44763;50.464;30.612;2022-07-01T00:21:35;100457.52;;;20.84;84.43
58979;BME280;44763;50.464;30.612;2022-07-01T00:24:02;100446.20;;;20.65;84.48
58979;BME280;44763;50.464;30.612;2022-07-01T00:26:28;100463.19;;;20.60;84.73
58979;BME280;44763;50.464;30.612;2022-07-01T00:28:55;100458.75;;;20.54;86.40
58979;BME280;44763;50.464;30.612;2022-07-01T00:31:21;100460.18;;;20.59;86.85
58979;BME280;44763;50.464;30.612;2022-07-01T00:33:47;100457.06;;;20.70;86.86
58979;BME280;44763;50.464;30.612;2022-07-01T00:36:13;100458.97;;;20.69;85.42
58979;BME280;44763;50.464;30.612;2022-07-01T00:38:39;100454.77;;;20.59;85.50
58979;BME280;44763;50.464;30.612;2022-07-01T00:41:06;100456.27;;;20.50;85.90
58979;BME280;44763;50.464;30.612;2022-07-01T00:43:36;100459.20;;;20.46;87.31
58979;BME280;44763;50.464;30.612;2022-07-01T00:46:05;100455.73;;;20.50;87.88
58979;BME280;44763;50.464;30.612;2022-07-01T00:48:32;100451.76;;;20.58;87.76
58979;BME280;44763;50.464;30.612;2022-07-01T00:51:02;100450.77;;;20.64;87.02
58979;BME280;44763;50.464;30.612;2022-07-01T00:53:29;100447.27;;;20.66;86.76
58979;BME280;44763;50.464;30.612;2022-07-01T00:55:56;100452.98;;;20.67;86.81
58979;BME280;44763;50.464;30.612;2022-07-01T00:58:26;100444.69;;;20.74;87.55
58979;BME280;44763;50.464;30.612;2022-07-01T01:00:58;100446.39;;;20.83;86.12
58979;BME280;44763;50.464;30.612;2022-07-01T01:03:25;100447.16;;;20.78;85.28
58979;BME280;44763;50.464;30.612;2022-07-01T01:05:52;100450.84;;;20.69;85.30
58979;BME280;44763;50.464;30.612;2022-07-01T01:08:20;100450.70;;;20.59;86.10
58979;BME280;44763;50.464;30.612;2022-07-01T01:10:47;100446.64;;;20.59;88.24
58979;BME280;44763;50.464;30.612;2022-07-01T01:13:16;100452.42;;;20.65;87.07
58979;BME280;44763;50.464;30.612;2022-07-01T01:15:42;100448.91;;;20.65;87.21
58979;BME280;44763;50.464;30.612;2022-07-01T01:18:10;100453.80;;;20.68;87.57
58979;BME280;44763;50.464;30.612;2022-07-01T01:20:36;100450.34;;;20.72;86.76
58979;BME280;44763;50.464;30.612;2022-07-01T01:23:03;100451.45;;;20.74;86.18
58979;BME280;44763;50.464;30.612;2022-07-01T01:25:34;100451.07;;;20.65;86.04
58979;BME280;44763;50.464;30.612;2022-07-01T01:28:01;100447.99;;;20.59;86.02
58979;BME280;44763;50.464;30.612;2022-07-01T01:30:28;100446.55;;;20.51;85.86
58979;BME280;44763;50.464;30.612;2022-07-01T01:32:55;100450.78;;;20.45;86.13
58979;BME280;44763;50.464;30.612;2022-07-01T01:35:23;100449.41;;;20.42;86.67
58979;BME280;44763;50.464;30.612;2022-07-01T01:37:49;100448.88;;;20.45;86.88
58979;BME280;44763;50.464;30.612;2022-07-01T01:40:15;100456.22;;;20.47;87.50
58979;BME280;44763;50.464;30.612;2022-07-01T01:42:43;100459.25;;;20.51;87.35
58979;BME280;44763;50.464;30.612;2022-07-01T01:45:13;100463.83;;;20.48;87.69
58979;BME280;44763;50.464;30.612;2022-07-01T01:47:40;100464.64;;;20.48;87.68
58979;BME280;44763;50.464;30.612;2022-07-01T01:50:08;100464.64;;;20.48;87.84
58979;BME280;44763;50.464;30.612;2022-07-01T01:52:35;100466.80;;;20.49;87.41
58979;BME280;44763;50.464;30.612;2022-07-01T01:55:05;100464.34;;;20.47;87.24
58979;BME280;44763;50.464;30.612;2022-07-01T01:57:31;100467.59;;;20.47;87.52
58979;BME280;44763;50.464;30.612;2022-07-01T01:59:59;100468.38;;;20.45;87.53
58979;BME280;44763;50.464;30.612;2022-07-01T02:02:27;100461.06;;;20.45;88.11
58979;BME280;44763;50.464;30.612;2022-07-01T02:04:56;100463.53;;;20.47;88.54
58979;BME280;44763;50.464;30.612;2022-07-01T02:07:22;100465.75;;;20.50;88.54
58979;BME280;44763;50.464;30.612;2022-07-01T02:09:48;100460.59;;;20.51;88.19
58979;BME280;44763;50.464;30.612;2022-07-01T02:12:14;100465.50;;;20.51;88.32
58979;BME280;44763;50.464;30.612;2022-07-01T02:14:42;100478.52;;;20.54;88.21
58979;BME280;44763;50.464;30.612;2022-07-01T02:17:09;100481.45;;;20.50;87.78
58979;BME280;44763;50.464;30.612;2022-07-01T02:19:35;100477.52;;;20.38;87.91
58979;BME280;44763;50.464;30.612;2022-07-01T02:22:01;100483.98;;;20.37;88.42
58979;BME280;44763;50.464;30.612;2022-07-01T02:24:28;100481.33;;;20.40;88.29
58979;BME280;44763;50.464;30.612;2022-07-01T02:26:54;100487.58;;;20.43;87.47
58979;BME280;44763;50.464;30.612;2022-07-01T02:29:20;100486.93;;;20.36;87.57
58979;BME280;44763;50.464;30.612;2022-07-01T02:31:46;100487.91;;;20.27;88.44
58979;BME280;44763;50.464;30.612;2022-07-01T02:34:12;100493.16;;;20.17;88.78
58979;BME280;44763;50.464;30.612;2022-07-01T02:36:38;100491.54;;;20.16;89.46
58979;BME280;44763;50.464;30.612;2022-07-01T02:39:04;100485.74;;;20.10;90.22
58979;BME280;44763;50.464;30.612;2022-07-01T02:41:30;100478.49;;;20.13;90.39
58979;BME280;44763;50.464;30.612;2022-07-01T02:43:57;100481.36;;;20.23;90.70
58979;BME280;44763;50.464;30.612;2022-07-01T02:46:22;100482.88;;;20.36;90.26
58979;BME280;44763;50.464;30.612;2022-07-01T02:48:49;100489.03;;;20.51;89.77
58979;BME280;44763;50.464;30.612;2022-07-01T02:51:15;100486.70;;;20.57;88.99
58979;BME280;44763;50.464;30.612;2022-07-01T02:53:41;100487.41;;;20.69;88.75
58979;BME280;44763;50.464;30.612;2022-07-01T02:56:07;100489.87;;;20.93;88.96
58979;BME280;44763;50.464;30.612;2022-07-01T02:58:34;100491.55;;;21.24;87.61
58979;BME280;44763;50.464;30.612;2022-07-01T03:01:00;100502.41;;;21.51;85.57
58979;BME280;44763;50.464;30.612;2022-07-01T03:03:26;100498.63;;;21.84;84.32
58979;BME280;44763;50.464;30.612;2022-07-01T03:05:53;100498.70;;;22.32;82.61
58979;BME280;44763;50.464;30.612;2022-07-01T03:08:19;100499.14;;;22.64;80.22
58979;BME280;44763;50.464;30.612;2022-07-01T03:10:45;100492.93;;;22.71;78.81
58979;BME280;44763;50.464;30.612;2022-07-01T03:13:11;100494.28;;;22.68;78.42
58979;BME280;44763;50.464;30.612;2022-07-01T03:15:38;100494.52;;;22.57;78.39
58979;BME280;44763;50.464;30.612;2022-07-01T03:18:04;100494.96;;;22.43;78.76
58979;BME280;44763;50.464;30.612;2022-07-01T03:20:30;100495.98;;;22.29;79.67
58979;BME280;44763;50.464;30.612;2022-07-01T03:22:56;100493.67;;;22.53;80.73
58979;BME280;44763;50.464;30.612;2022-07-01T03:25:23;100493.65;;;23.11;78.92
58979;BME280;44763;50.464;30.612;2022-07-01T03:27:49;100494.84;;;23.80;76.24
58979;BME280;44763;50.464;30.612;2022-07-01T03:30:15;100492.53;;;24.54;73.17
58979;BME280;44763;50.464;30.612;2022-07-01T03:32:45;100488.92;;;25.29;69.31
58979;BME280;44763;50.464;30.612;2022-07-01T03:35:11;100491.53;;;25.78;65.54
58979;BME280;44763;50.464;30.612;2022-07-01T03:37:56;100493.34;;;25.96;63.89
58979;BME280;44763;50.464;30.612;2022-07-01T03:40:24;100489.89;;;26.12;63.50
58979;BME280;44763;50.464;30.612;2022-07-01T03:42:50;100491.94;;;26.25;62.42
58979;BME280;44763;50.464;30.612;2022-07-01T03:45:16;100493.36;;;26.47;61.37
58979;BME280;44763;50.464;30.612;2022-07-01T03:47:47;100488.11;;;26.74;60.94
58979;BME280;44763;50.464;30.612;2022-07-01T03:50:15;100488.34;;;26.99;59.70
58979;BME280;44763;50.464;30.612;2022-07-01T03:52:42;100494.00;;;27.06;59.13
58979;BME280;44763;50.464;30.612;2022-07-01T03:55:10;100491.87;;;26.81;59.63
58979;BME280;44763;50.464;30.612;2022-07-01T03:57:37;100490.87;;;26.48;60.89
58979;BME280;44763;50.464;30.612;2022-07-01T04:00:04;100492.75;;;26.52;60.59
58979;BME280;44763;50.464;30.612;2022-07-01T04:02:32;100493.23;;;26.81;60.10
58979;BME280;44763;50.464;30.612;2022-07-01T04:04:59;100484.23;;;27.18;57.26
58979;BME280;44763;50.464;30.612;2022-07-01T04:07:25;100491.31;;;27.57;55.80
58979;BME280;44763;50.464;30.612;2022-07-01T04:09:52;100492.61;;;27.79;54.92
58979;BME280;44763;50.464;30.612;2022-07-01T04:12:19;100488.80;;;27.61;55.07
58979;BME280;44763;50.464;30.612;2022-07-01T04:14:45;100489.10;;;27.22;56.09
58979;BME280;44763;50.464;30.612;2022-07-01T04:17:11;100494.04;;;26.82;56.77
58979;BME280;44763;50.464;30.612;2022-07-01T04:19:38;100498.84;;;26.44;58.50
58979;BME280;44763;50.464;30.612;2022-07-01T04:22:04;100510.66;;;26.13;60.53
58979;BME280;44763;50.464;30.612;2022-07-01T04:24:49;100504.13;;;26.09;59.79
58979;BME280;44763;50.464;30.612;2022-07-01T04:27:15;100503.91;;;26.29;59.57
58979;BME280;44763;50.464;30.612;2022-07-01T04:29:41;100496.48;;;26.59;58.64
58979;BME280;44763;50.464;30.612;2022-07-01T04:32:08;100496.64;;;26.70;57.66
58979;BME280;44763;50.464;30.612;2022-07-01T04:34:34;100505.59;;;26.76;57.69
58979;BME280;44763;50.464;30.612;2022-07-01T04:37:02;100498.14;;;27.03;58.15
58979;BME280;44763;50.464;30.612;2022-07-01T04:39:29;100504.80;;;27.70;56.68
58979;BME280;44763;50.464;30.612;2022-07-01T04:41:55;100494.20;;;28.43;54.21
58979;BME280;44763;50.464;30.612;2022-07-01T04:46:58;100488.83;;;29.64;48.87
58979;BME280;44763;50.464;30.612;2022-07-01T04:49:25;100490.20;;;29.86;47.50
58979;BME280;44763;50.464;30.612;2022-07-01T04:51:54;100496.75;;;29.99;47.68
58979;BME280;44763;50.464;30.612;2022-07-01T04:54:21;100494.57;;;30.19;45.96
58979;BME280;44763;50.464;30.612;2022-07-01T04:56:48;100494.19;;;30.03;45.56
58979;BME280;44763;50.464;30.612;2022-07-01T04:59:14;100494.56;;;29.87;45.48
58979;BME280;44763;50.464;30.612;2022-07-01T05:01:43;100496.20;;;29.88;45.58
58979;BME280;44763;50.464;30.612;2022-07-01T05:04:11;100486.56;;;30.00;45.07
58979;BME280;44763;50.464;30.612;2022-07-01T05:06:39;100490.00;;;29.94;44.92
58979;BME280;44763;50.464;30.612;2022-07-01T05:09:05;100487.95;;;29.66;45.11
58979;BME280;44763;50.464;30.612;2022-07-01T05:11:32;100492.81;;;29.24;46.57
58979;BME280;44763;50.464;30.612;2022-07-01T05:14:00;100489.13;;;29.03;47.39
58979;BME280;44763;50.464;30.612;2022-07-01T05:16:27;100492.43;;;29.17;47.78
58979;BME280;44763;50.464;30.612;2022-07-01T05:18:53;100494.39;;;29.50;46.79
58979;BME280;44763;50.464;30.612;2022-07-01T05:21:38;100489.59;;;29.56;45.90
58979;BME280;44763;50.464;30.612;2022-07-01T05:24:23;100487.38;;;29.33;45.76
58979;BME280;44763;50.464;30.612;2022-07-01T05:26:52;100495.25;;;29.11;46.37
58979;BME280;44763;50.464;30.612;2022-07-01T05:29:18;100498.41;;;28.93;47.52
58979;BME280;44763;50.464;30.612;2022-07-01T05:31:44;100503.62;;;28.92;47.04
58979;BME280;44763;50.464;30.612;2022-07-01T05:34:11;100501.55;;;28.87;47.24
58979;BME280;44763;50.464;30.612;2022-07-01T05:36:37;100505.30;;;28.66;47.83
58979;BME280;44763;50.464;30.612;2022-07-01T05:39:05;100509.52;;;28.30;48.77
58979;BME280;44763;50.464;30.612;2022-07-01T05:41:32;100514.23;;;27.97;49.88
58979;BME280;44763;50.464;30.612;2022-07-01T05:44:00;100517.40;;;27.88;50.78
58979;BME280;44763;50.464;30.612;2022-07-01T05:46:27;100513.00;;;27.89;50.16
58979;BME280;44763;50.464;30.612;2022-07-01T05:48:53;100515.46;;;28.05;50.42
58979;BME280;44763;50.464;30.612;2022-07-01T05:51:19;100507.44;;;28.25;48.71
58979;BME280;44763;50.464;30.612;2022-07-01T05:53:46;100505.34;;;28.33;48.85
58979;BME280;44763;50.464;30.612;2022-07-01T05:56:13;100500.85;;;28.40;48.81
58979;BME280;44763;50.464;30.612;2022-07-01T05:58:40;100507.80;;;28.34;48.88
58979;BME280;44763;50.464;30.612;2022-07-01T06:01:06;100502.42;;;28.43;48.83
58979;BME280;44763;50.464;30.612;2022-07-01T06:03:32;100500.71;;;28.61;49.63
58979;BME280;44763;50.464;30.612;2022-07-01T06:05:59;100503.03;;;28.96;48.12
58979;BME280;44763;50.464;30.612;2022-07-01T06:08:25;100497.81;;;29.22;47.17
58979;BME280;44763;50.464;30.612;2022-07-01T06:10:51;100496.84;;;29.15;46.90
58979;BME280;44763;50.464;30.612;2022-07-01T06:13:17;100497.30;;;29.06;47.43
58979;BME280;44763;50.464;30.612;2022-07-01T06:15:43;100497.17;;;29.00;48.02
58979;BME280;44763;50.464;30.612;2022-07-01T06:18:10;100489.63;;;29.05;48.11
58979;BME280;44763;50.464;30.612;2022-07-01T06:20:36;100494.91;;;29.16;47.94
58979;BME280;44763;50.464;30.612;2022-07-01T06:23:03;100492.83;;;29.35;47.58
58979;BME280;44763;50.464;30.612;2022-07-01T06:25:30;100493.75;;;29.42;46.75
58979;BME280;44763;50.464;30.612;2022-07-01T06:27:56;100494.59;;;29.54;47.27
58979;BME280;44763;50.464;30.612;2022-07-01T06:30:22;100485.39;;;29.69;46.90
58979;BME280;44763;50.464;30.612;2022-07-01T06:32:49;100481.59;;;29.79;46.31
58979;BME280;44763;50.464;30.612;2022-07-01T06:35:16;100482.52;;;29.97;45.65
58979;BME280;44763;50.464;30.612;2022-07-01T06:37:43;100475.56;;;30.00;45.64
58979;BME280;44763;50.464;30.612;2022-07-01T06:40:10;100475.17;;;30.04;45.19
58979;BME280;44763;50.464;30.612;2022-07-01T06:42:38;100479.97;;;30.09;44.76
58979;BME280;44763;50.464;30.612;2022-07-01T06:45:05;100475.02;;;30.20;45.35
58979;BME280;44763;50.464;30.612;2022-07-01T06:47:32;100465.66;;;30.41;44.86
58979;BME280;44763;50.464;30.612;2022-07-01T06:49:59;100468.13;;;30.52;43.99
58979;BME280;44763;50.464;30.612;2022-07-01T06:52:25;100465.20;;;30.57;44.12
58979;BME280;44763;50.464;30.612;2022-07-01T06:54:51;100464.97;;;30.56;43.74
58979;BME280;44763;50.464;30.612;2022-07-01T06:57:18;100461.33;;;30.66;43.61
58979;BME280;44763;50.464;30.612;2022-07-01T06:59:44;100465.80;;;30.74;43.28
58979;BME280;44763;50.464;30.612;2022-07-01T07:02:10;100464.83;;;30.70;42.95
58979;BME280;44763;50.464;30.612;2022-07-01T07:04:36;100462.77;;;30.55;44.17
58979;BME280;44763;50.464;30.612;2022-07-01T07:07:03;100462.05;;;30.61;43.29
58979;BME280;44763;50.464;30.612;2022-07-01T07:09:30;100468.40;;;30.41;43.43
58979;BME280;44763;50.464;30.612;2022-07-01T07:11:56;100464.92;;;30.27;43.05
58979;BME280;44763;50.464;30.612;2022-07-01T07:14:22;100463.53;;;30.18;44.06
58979;BME280;44763;50.464;30.612;2022-07-01T07:16:48;100461.63;;;30.27;42.73
58979;BME280;44763;50.464;30.612;2022-07-01T07:19:16;100459.85;;;30.32;43.24
58979;BME280;44763;50.464;30.612;2022-07-01T07:21:43;100457.17;;;30.40;42.48
58979;BME280;44763;50.464;30.612;2022-07-01T07:24:09;100471.19;;;30.50;42.22
58979;BME280;44763;50.464;30.612;2022-07-01T07:26:35;100466.23;;;30.50;42.49
58979;BME280;44763;50.464;30.612;2022-07-01T07:29:01;100471.78;;;30.38;41.89
58979;BME280;44763;50.464;30.612;2022-07-01T07:31:29;100479.05;;;30.23;42.39
58979;BME280;44763;50.464;30.612;2022-07-01T07:33:55;100459.49;;;30.04;44.21
58979;BME280;44763;50.464;30.612;2022-07-01T07:36:21;100468.98;;;30.09;43.79
58979;BME280;44763;50.464;30.612;2022-07-01T07:38:48;100460.78;;;30.18;43.24
58979;BME280;44763;50.464;30.612;2022-07-01T07:41:15;100467.97;;;30.17;43.26
58979;BME280;44763;50.464;30.612;2022-07-01T07:43:41;100463.64;;;29.93;42.58
58979;BME280;44763;50.464;30.612;2022-07-01T07:46:07;100461.86;;;29.66;43.25
58979;BME280;44763;50.464;30.612;2022-07-01T07:48:33;100455.31;;;29.30;43.82
58979;BME280;44763;50.464;30.612;2022-07-01T07:51:00;100455.30;;;29.19;44.36
58979;BME280;44763;50.464;30.612;2022-07-01T07:53:26;100455.45;;;29.14;44.33
58979;BME280;44763;50.464;30.612;2022-07-01T07:55:53;100455.14;;;29.02;46.11
58979;BME280;44763;50.464;30.612;2022-07-01T07:58:19;100450.70;;;28.92;45.85
58979;BME280;44763;50.464;30.612;2022-07-01T08:00:46;100452.25;;;28.84;46.93
58979;BME280;44763;50.464;30.612;2022-07-01T08:03:12;100447.13;;;28.80;46.78
58979;BME280;44763;50.464;30.612;2022-07-01T08:05:38;100441.11;;;28.78;47.65
58979;BME280;44763;50.464;30.612;2022-07-01T08:08:04;100451.85;;;28.77;47.02
58979;BME280;44763;50.464;30.612;2022-07-01T08:10:32;100445.59;;;28.74;45.50
58979;BME280;44763;50.464;30.612;2022-07-01T08:13:00;100447.17;;;28.78;45.13
58979;BME280;44763;50.464;30.612;2022-07-01T08:15:28;100447.94;;;28.81;44.48
58979;BME280;44763;50.464;30.612;2022-07-01T08:17:56;100447.17;;;28.78;45.25
58979;BME280;44763;50.464;30.612;2022-07-01T08:20:23;100442.22;;;28.66;45.94
58979;BME280;44763;50.464;30.612;2022-07-01T08:22:49;100445.03;;;28.63;46.11
58979;BME280;44763;50.464;30.612;2022-07-01T08:25:15;100436.47;;;28.65;45.55
58979;BME280;44763;50.464;30.612;2022-07-01T08:27:42;100437.54;;;28.66;46.00
58979;BME280;44763;50.464;30.612;2022-07-01T08:30:10;100454.50;;;28.68;44.07
58979;BME280;44763;50.464;30.612;2022-07-01T08:32:37;100437.44;;;28.71;44.67
58979;BME280;44763;50.464;30.612;2022-07-01T08:35:03;100444.92;;;28.80;45.15
58979;BME280;44763;50.464;30.612;2022-07-01T08:37:30;100442.58;;;28.87;44.82
58979;BME280;44763;50.464;30.612;2022-07-01T08:39:57;100454.42;;;28.85;43.93
58979;BME280;44763;50.464;30.612;2022-07-01T08:42:25;100453.13;;;28.68;44.54
58979;BME280;44763;50.464;30.612;2022-07-01T08:44:51;100443.45;;;28.60;45.48
58979;BME280;44763;50.464;30.612;2022-07-01T08:47:17;100446.27;;;28.68;45.91
58979;BME280;44763;50.464;30.612;2022-07-01T08:49:44;100448.61;;;28.75;46.16
58979;BME280;44763;50.464;30.612;2022-07-01T08:52:10;100465.23;;;28.67;44.76
58979;BME280;44763;50.464;30.612;2022-07-01T08:54:38;100451.55;;;28.51;44.64
58979;BME280;44763;50.464;30.612;2022-07-01T08:57:05;100444.01;;;28.31;45.46
58979;BME280;44763;50.464;30.612;2022-07-01T08:59:32;100445.20;;;28.25;45.26
58979;BME280;44763;50.464;30.612;2022-07-01T09:02:01;100446.05;;;28.26;45.72
58979;BME280;44763;50.464;30.612;2022-07-01T09:04:30;100452.17;;;28.34;44.81
58979;BME280;44763;50.464;30.612;2022-07-01T09:07:06;100453.17;;;28.38;44.59
58979;BME280;44763;50.464;30.612;2022-07-01T09:09:38;100446.23;;;28.43;44.36
58979;BME280;44763;50.464;30.612;2022-07-01T09:12:06;100446.94;;;28.49;44.14
58979;BME280;44763;50.464;30.612;2022-07-01T09:14:34;100450.98;;;28.51;43.92
58979;BME280;44763;50.464;30.612;2022-07-01T09:17:05;100441.25;;;28.59;43.75
58979;BME280;44763;50.464;30.612;2022-07-01T09:19:34;100444.97;;;28.66;43.51
58979;BME280;44763;50.464;30.612;2022-07-01T09:22:03;100440.95;;;28.61;42.98
58979;BME280;44763;50.464;30.612;2022-07-01T09:24:36;100442.48;;;28.53;43.08
58979;BME280;44763;50.464;30.612;2022-07-01T09:27:12;100446.37;;;28.49;43.29
58979;BME280;44763;50.464;30.612;2022-07-01T09:29:45;100442.02;;;28.48;43.43
58979;BME280;44763;50.464;30.612;2022-07-01T09:32:16;100430.28;;;28.45;43.44
58979;BME280;44763;50.464;30.612;2022-07-01T09:34:47;100441.34;;;28.40;43.97
58979;BME280;44763;50.464;30.612;2022-07-01T09:37:23;100430.10;;;28.28;43.59
58979;BME280;44763;50.464;30.612;2022-07-01T09:39:55;100429.33;;;28.25;43.28
58979;BME280;44763;50.464;30.612;2022-07-01T09:42:24;100430.13;;;28.25;42.86
58979;BME280;44763;50.464;30.612;2022-07-01T09:47:34;100439.69;;;28.28;42.43
58979;BME280;44763;50.464;30.612;2022-07-01T09:50:03;100434.61;;;28.21;42.66
58979;BME280;44763;50.464;30.612;2022-07-01T09:52:32;100441.81;;;28.17;42.54
58979;BME280;44763;50.464;30.612;2022-07-01T09:54:59;100436.72;;;28.10;42.73
58979;BME280;44763;50.464;30.612;2022-07-01T09:57:25;100438.72;;;28.07;42.71
58979;BME280;44763;50.464;30.612;2022-07-01T09:59:52;100433.48;;;28.08;42.80
58979;BME280;44763;50.464;30.612;2022-07-01T10:02:19;100430.95;;;28.12;42.35
58979;BME280;44763;50.464;30.612;2022-07-01T10:04:53;100446.17;;;28.04;42.21
58979;BME280;44763;50.464;30.612;2022-07-01T10:13:43;100439.02;;;28.06;41.50
58979;BME280;44763;50.464;30.612;2022-07-01T10:16:12;100431.57;;;28.09;41.30
58979;BME280;44763;50.464;30.612;2022-07-01T10:18:39;100421.92;;;28.11;41.10
58979;BME280;44763;50.464;30.612;2022-07-01T10:21:06;100428.41;;;28.15;41.11
58979;BME280;44763;50.464;30.612;2022-07-01T10:23:42;100418.46;;;28.20;40.81
58979;BME280;44763;50.464;30.612;2022-07-01T10:26:09;100418.73;;;28.21;40.60
58979;BME280;44763;50.464;30.612;2022-07-01T10:28:41;100419.59;;;28.19;40.38
58979;BME280;44763;50.464;30.612;2022-07-01T10:31:15;100433.09;;;28.15;40.13
58979;BME280;44763;50.464;30.612;2022-07-01T10:44:25;100428.86;;;28.06;40.01
58979;BME280;44763;50.464;30.612;2022-07-01T10:52:15;100412.42;;;28.06;39.79
58979;BME280;44763;50.464;30.612;2022-07-01T10:57:23;100400.57;;;28.11;40.03
58979;BME280;44763;50.464;30.612;2022-07-01T11:02:37;100392.47;;;28.31;39.67
58979;BME280;44763;50.464;30.612;2022-07-01T11:05:04;100401.36;;;28.39;39.22
58979;BME280;44763;50.464;30.612;2022-07-01T11:07:42;100395.88;;;28.39;39.21
58979;BME280;44763;50.464;30.612;2022-07-01T11:10:12;100389.63;;;28.36;39.45
58979;BME280;44763;50.464;30.612;2022-07-01T11:12:43;100395.71;;;28.33;39.95
58979;BME280;44763;50.464;30.612;2022-07-01T11:15:11;100398.61;;;28.25;39.83
58979;BME280;44763;50.464;30.612;2022-07-01T11:17:49;100397.61;;;28.21;39.10
58979;BME280;44763;50.464;30.612;2022-07-01T11:20:13;100411.61;;;28.20;39.19
58979;BME280;44763;50.464;30.612;2022-07-01T11:22:39;100406.25;;;28.14;39.07
58979;BME280;44763;50.464;30.612;2022-07-01T11:25:09;100389.14;;;28.06;39.49
58979;BME280;44763;50.464;30.612;2022-07-01T11:27:37;100396.82;;;28.07;38.93
58979;BME280;44763;50.464;30.612;2022-07-01T11:30:08;100387.73;;;28.09;39.01
58979;BME280;44763;50.464;30.612;2022-07-01T11:32:44;100382.46;;;28.12;39.26
58979;BME280;44763;50.464;30.612;2022-07-01T11:35:18;100379.89;;;28.16;39.06
58979;BME280;44763;50.464;30.612;2022-07-01T11:38:13;100391.92;;;28.18;39.13
58979;BME280;44763;50.464;30.612;2022-07-01T11:41:08;100391.12;;;28.17;39.06
58979;BME280;44763;50.464;30.612;2022-07-01T11:43:48;100387.02;;;28.17;39.24
58979;BME280;44763;50.464;30.612;2022-07-01T11:46:16;100386.95;;;28.20;39.29
58979;BME280;44763;50.464;30.612;2022-07-01T11:48:48;100388.22;;;28.25;39.02
58979;BME280;44763;50.464;30.612;2022-07-01T11:51:19;100380.34;;;28.34;39.18
58979;BME280;44763;50.464;30.612;2022-07-01T11:55:07;100376.62;;;28.56;39.21
58979;BME280;44763;50.464;30.612;2022-07-01T11:57:34;100373.40;;;28.65;39.29
58979;BME280;44763;50.464;30.612;2022-07-01T12:00:10;100373.30;;;28.70;38.76
58979;BME280;44763;50.464;30.612;2022-07-01T12:02:38;100382.33;;;28.70;38.44
58979;BME280;44763;50.464;30.612;2022-07-01T12:05:05;100376.30;;;28.71;38.06
58979;BME280;44763;50.464;30.612;2022-07-01T12:07:32;100369.55;;;28.66;37.72
58979;BME280;44763;50.464;30.612;2022-07-01T12:09:59;100360.83;;;28.64;37.91
58979;BME280;44763;50.464;30.612;2022-07-01T12:12:27;100361.63;;;28.64;38.44
58979;BME280;44763;50.464;30.612;2022-07-01T12:14:56;100371.98;;;28.67;37.62
58979;BME280;44763;50.464;30.612;2022-07-01T12:17:24;100353.33;;;28.67;38.20
58979;BME280;44763;50.464;30.612;2022-07-01T12:19:52;100349.22;;;28.67;38.02
58979;BME280;44763;50.464;30.612;2022-07-01T12:22:22;100356.34;;;28.68;37.78
58979;BME280;44763;50.464;30.612;2022-07-01T12:25:07;100364.06;;;28.66;38.04
58979;BME280;44763;50.464;30.612;2022-07-01T12:27:22;100352.59;;;28.64;37.61
58979;BME280;44763;50.464;30.612;2022-07-01T12:29:51;100365.17;;;28.65;37.07
58979;BME280;44763;50.464;30.612;2022-07-01T12:32:22;100367.72;;;28.61;36.95
58979;BME280;44763;50.464;30.612;2022-07-01T12:34:56;100359.36;;;28.55;37.24
58979;BME280;44763;50.464;30.612;2022-07-01T12:40:23;100357.49;;;28.53;37.05
58979;BME280;44763;50.464;30.612;2022-07-01T12:42:50;100357.19;;;28.54;37.47
58979;BME280;44763;50.464;30.612;2022-07-01T12:45:22;100357.12;;;28.57;37.12
58979;BME280;44763;50.464;30.612;2022-07-01T12:47:51;100352.09;;;28.62;37.32
58979;BME280;44763;50.464;30.612;2022-07-01T12:53:08;100355.84;;;28.66;36.66
58979;BME280;44763;50.464;30.612;2022-07-01T12:55:45;100350.73;;;28.62;36.30
58979;BME280;44763;50.464;30.612;2022-07-01T12:58:13;100346.45;;;28.56;36.58
58979;BME280;44763;50.464;30.612;2022-07-01T13:00:42;100350.64;;;28.53;36.18
58979;BME280;44763;50.464;30.612;2022-07-01T13:03:10;100351.78;;;28.49;36.50
58979;BME280;44763;50.464;30.612;2022-07-01T13:05:39;100356.53;;;28.46;36.27
58979;BME280;44763;50.464;30.612;2022-07-01T13:08:08;100349.02;;;28.38;36.07
58979;BME280;44763;50.464;30.612;2022-07-01T13:10:35;100348.31;;;28.32;36.06
58979;BME280;44763;50.464;30.612;2022-07-01T13:13:03;100347.88;;;28.28;35.93
58979;BME280;44763;50.464;30.612;2022-07-01T13:15:30;100347.11;;;28.25;35.91
58979;BME280;44763;50.464;30.612;2022-07-01T13:17:57;100352.66;;;28.22;36.27
58979;BME280;44763;50.464;30.612;2022-07-01T13:20:23;100345.84;;;28.20;36.63
58979;BME280;44763;50.464;30.612;2022-07-01T13:22:49;100342.60;;;28.18;36.55
58979;BME280;44763;50.464;30.612;2022-07-01T13:25:15;100348.34;;;28.19;36.84